Vladivostok International Airport
UHWW : now visible

Airfield :











YOU CAN JOIN US ON...

 
LOGIN :

Register | Disclaimer

   EN    FR    IT 

 









Legend :    VFR   Marginal VFR   IFR   Intensive IFR   Very Intensive IFR
Visi :
Ceiling :
>= 8 km
>= 3000ft
5 to 8 km
1000 to 3000 ft
1500m to 5 km
500 to 1000 ft
800 to 1500m
200 to 500 ft
< 800m
< 200 ft
Symbols :   Thunderstorms  Fog  Heavy snow  Heavy precipitations  Wind > 20 kt






- Airport Elevation : 46 ft
- IATA code : VVO


UHWW - Vladivostok International

CURRENT METAR :
  • 070000Z 33006MPS 9999 NSC 04/M06 Q1012 R25L/0///70 NOSIG RMK QFE758

EXPIRED METARs :
  • 062330Z 32005MPS 9999 NSC 04/M04 Q1012 R25L/0///70 NOSIG RMK QFE757
  • 062300Z 30004MPS 9999 FEW033 04/M03 Q1011 R25L/0///70 NOSIG RMK QFE757
  • 062230Z 25002MPS 9999 FEW033 M01/M03 Q1011 R25L/0///70 NOSIG RMK QFE757
  • 062200Z 27002MPS 9999 SCT040 M02/M03 Q1011 R25L/0///70 NOSIG RMK QFE757
  • 062130Z 00000MPS 9999 NSC M03/M04 Q1011 R25L/0///70 NOSIG RMK QFE757

TAF AMD TAF UHWW
Valid from the 07 at 00:00 until the 08 at 00:00 UTC


070010Z 0700/0724 35003MPS 9999 BKN030CB
TEMPO 0700/0709 34009G14MPS 5000 -SHRA
BECMG 0712/0715 3100 -SHSNRA



MET'MAP, your aeronautical weather chart ! - Copyright ORBIFLY December 2007 - Disclaimer

ORBIFLY MET'MAP TEAM :

Programming & Development : Alexandra Zaïnal
Concept & original design : Baudouin d'Aumeries
Assistance for programming : Marc-Olivier Méhu
Technical & hardware support : Manuel Goepfert

Contact : metmap@orbifly.com




SOURCES & CREDITS :

   NOAA       Earth
Advisory